Time;durP1;ratioP1;P1;durP2;ratioP2;P2;SDS_P1;SDS_P2;PMS_P1;PMS_P2;Temp;Humidity;BMP_temperature;BMP_pressure;BME280_temperature;BME280_humidity;BME280_pressure;Samples;Min_cycle;Max_cycle;Signal;HPM_P1;HPM_P2
2021/05/12 00:01:38;;;;;;;25.50;20.67;;;;;;;;;;5033386;28;20528;-61
2021/05/12 00:04:05;;;;;;;22.50;20.20;;;;;;;;;;5033338;28;20464;-60
2021/05/12 00:06:32;;;;;;;28.47;22.10;;;;;;;;;;5033396;28;20586;-61
2021/05/12 00:08:59;;;;;;;27.63;21.30;;;;;;;;;;5032925;28;20993;-61
2021/05/12 00:11:25;;;;;;;24.67;22.07;;;;;;;;;;5033081;28;20446;-61
2021/05/12 00:13:53;;;;;;;25.50;22.37;;;;;;;;;;5033012;28;20935;-61
2021/05/12 00:16:20;;;;;;;24.33;21.70;;;;;;;;;;5033513;28;20446;-61
2021/05/12 00:18:47;;;;;;;26.00;21.70;;;;;;;;;;5033369;28;20861;-61
2021/05/12 00:21:23;;;;;;;23.57;21.17;;;;;;;;;;5033300;28;20446;-61
2021/05/12 00:23:58;;;;;;;23.70;21.37;;;;;;;;;;5035745;28;20432;-62
2021/05/12 00:26:25;;;;;;;24.77;20.23;;;;;;;;;;5037442;28;20441;-61
2021/05/12 00:28:52;;;;;;;25.77;23.07;;;;;;;;;;5037287;28;20568;-61
2021/05/12 00:31:19;;;;;;;25.70;22.97;;;;;;;;;;5036982;28;20492;-61
2021/05/12 00:33:46;;;;;;;25.87;23.10;;;;;;;;;;5037108;28;20500;-61
2021/05/12 00:36:13;;;;;;;26.50;23.70;;;;;;;;;;5036870;28;20919;-60
2021/05/12 00:38:39;;;;;;;25.77;23.07;;;;;;;;;;5036814;28;20951;-60
2021/05/12 00:41:06;;;;;;;21.67;19.37;;;;;;;;;;5036834;28;20454;-60
2021/05/12 00:43:33;;;;;;;25.77;22.93;;;;;;;;;;5036748;28;20471;-60
2021/05/12 00:46:01;;;;;;;24.60;22.20;;;;;;;;;;5036615;28;20589;-60
2021/05/12 00:48:27;;;;;;;23.47;20.73;;;;;;;;;;5037617;28;20479;-61
2021/05/12 00:50:54;;;;;;;23.17;20.77;;;;;;;;;;5036907;28;20455;-61
2021/05/12 00:53:21;;;;;;;26.40;20.90;;;;;;;;;;5036860;28;20443;-61
2021/05/12 00:55:48;;;;;;;24.57;21.97;;;;;;;;;;5036702;28;20472;-61
2021/05/12 00:58:15;;;;;;;25.03;21.80;;;;;;;;;;5036823;28;20493;-61
2021/05/12 01:00:42;;;;;;;25.63;22.53;;;;;;;;;;5036398;28;20510;-60
2021/05/12 01:03:10;;;;;;;29.03;21.70;;;;;;;;;;5036581;28;20443;-60
2021/05/12 01:05:59;;;;;;;27.13;23.40;;;;;;;;;;5036292;28;20981;-60
2021/05/12 01:08:26;;;;;;;28.43;23.60;;;;;;;;;;5037084;28;20561;-59
2021/05/12 01:10:53;;;;;;;25.20;21.40;;;;;;;;;;5036527;28;20497;-60
2021/05/12 01:13:20;;;;;;;23.70;20.57;;;;;;;;;;5036908;28;20459;-61
2021/05/12 01:15:47;;;;;;;23.90;21.40;;;;;;;;;;5036043;28;20473;-61
2021/05/12 01:18:16;;;;;;;24.23;21.50;;;;;;;;;;5036062;28;20857;-61
2021/05/12 01:20:50;;;;;;;28.23;23.00;;;;;;;;;;5036044;28;20439;-61
2021/05/12 01:23:18;;;;;;;27.90;21.67;;;;;;;;;;5036294;28;20441;-61
2021/05/12 01:25:45;;;;;;;26.30;23.30;;;;;;;;;;5036283;28;20479;-61
2021/05/12 01:28:12;;;;;;;26.73;22.67;;;;;;;;;;5036320;28;20478;-60
2021/05/12 01:30:39;;;;;;;29.70;23.40;;;;;;;;;;5036157;28;20480;-61
2021/05/12 01:33:06;;;;;;;27.70;22.80;;;;;;;;;;5036227;28;20446;-61
2021/05/12 01:35:33;;;;;;;28.90;23.77;;;;;;;;;;5035104;28;20464;-60
2021/05/12 01:38:01;;;;;;;26.50;22.93;;;;;;;;;;5035763;28;20931;-61
2021/05/12 01:40:28;;;;;;;31.60;25.83;;;;;;;;;;5035890;28;20998;-60
2021/05/12 01:42:55;;;;;;;29.00;22.77;;;;;;;;;;5035646;28;20872;-61
2021/05/12 01:45:21;;;;;;;31.30;24.20;;;;;;;;;;5035659;28;20542;-61
2021/05/12 01:47:48;;;;;;;28.87;23.83;;;;;;;;;;5035803;28;20512;-60
2021/05/12 01:50:15;;;;;;;26.63;23.90;;;;;;;;;;5035841;28;20442;-60
2021/05/12 01:52:42;;;;;;;26.03;23.00;;;;;;;;;;5035403;28;20450;-60
2021/05/12 01:55:11;;;;;;;27.40;23.37;;;;;;;;;;5035374;28;20974;-61
2021/05/12 01:57:40;;;;;;;26.37;22.93;;;;;;;;;;5035633;28;20450;-60
2021/05/12 02:00:18;;;;;;;26.20;23.33;;;;;;;;;;5035567;28;20522;-60
2021/05/12 02:02:44;;;;;;;31.10;23.87;;;;;;;;;;5035583;28;20429;-61
2021/05/12 02:05:11;;;;;;;28.33;21.70;;;;;;;;;;5035460;28;20515;-61
2021/05/12 02:07:38;;;;;;;26.67;22.80;;;;;;;;;;5035456;28;20474;-60
2021/05/12 02:10:05;;;;;;;28.10;23.90;;;;;;;;;;5035330;28;20481;-60
2021/05/12 02:12:33;;;;;;;26.70;23.67;;;;;;;;;;5035495;28;20441;-61
2021/05/12 02:15:00;;;;;;;27.97;24.10;;;;;;;;;;5034993;28;21039;-61
2021/05/12 02:17:27;;;;;;;29.80;22.83;;;;;;;;;;5035047;28;20453;-60
2021/05/12 02:19:53;;;;;;;25.77;22.73;;;;;;;;;;5036229;28;20955;-61
2021/05/12 02:22:20;;;;;;;29.23;21.27;;;;;;;;;;5035420;28;20968;-61
2021/05/12 02:24:47;;;;;;;29.70;21.93;;;;;;;;;;5035648;28;20872;-61
2021/05/12 02:27:14;;;;;;;26.27;22.83;;;;;;;;;;5036339;28;20998;-61
2021/05/12 02:29:41;;;;;;;24.90;21.77;;;;;;;;;;5035392;28;20549;-61
2021/05/12 02:32:08;;;;;;;28.53;22.60;;;;;;;;;;5035918;28;20450;-60
2021/05/12 02:34:35;;;;;;;24.57;21.90;;;;;;;;;;5035371;28;20478;-61
2021/05/12 02:37:01;;;;;;;25.17;21.57;;;;;;;;;;5035416;28;20457;-60
2021/05/12 02:39:29;;;;;;;24.80;20.10;;;;;;;;;;5035121;28;20449;-61
2021/05/12 02:41:56;;;;;;;25.63;20.20;;;;;;;;;;5035011;28;20457;-61
2021/05/12 02:44:23;;;;;;;27.90;20.80;;;;;;;;;;5034491;28;20477;-61
2021/05/12 02:46:50;;;;;;;28.50;20.20;;;;;;;;;;5034422;28;20441;-61
2021/05/12 02:49:17;;;;;;;25.30;21.27;;;;;;;;;;5034760;28;20547;-61
2021/05/12 02:51:44;;;;;;;24.93;21.43;;;;;;;;;;5034777;28;20448;-61
2021/05/12 02:54:11;;;;;;;23.47;19.40;;;;;;;;;;5034405;28;20461;-61
2021/05/12 02:56:38;;;;;;;21.77;18.83;;;;;;;;;;5034380;28;20866;-60
2021/05/12 02:59:04;;;;;;;24.53;19.13;;;;;;;;;;5034585;28;20817;-60
2021/05/12 03:01:31;;;;;;;22.57;18.10;;;;;;;;;;5034621;28;20449;-60
2021/05/12 03:03:59;;;;;;;22.40;18.30;;;;;;;;;;5035066;28;20449;-61
2021/05/12 03:06:25;;;;;;;21.77;19.10;;;;;;;;;;5034707;28;20451;-61
2021/05/12 03:08:52;;;;;;;23.27;19.33;;;;;;;;;;5034427;28;20480;-60
2021/05/12 03:11:19;;;;;;;22.57;18.83;;;;;;;;;;5034464;28;20467;-61
2021/05/12 03:13:46;;;;;;;26.67;18.70;;;;;;;;;;5034318;28;20570;-60
2021/05/12 03:16:13;;;;;;;22.40;17.87;;;;;;;;;;5034125;28;20449;-61
2021/05/12 03:18:40;;;;;;;23.83;18.40;;;;;;;;;;5034213;28;20443;-61
2021/05/12 03:21:08;;;;;;;23.03;18.47;;;;;;;;;;5034365;28;20568;-61
2021/05/12 03:23:34;;;;;;;25.70;20.33;;;;;;;;;;5034196;28;20454;-61
2021/05/12 03:26:01;;;;;;;24.40;21.27;;;;;;;;;;5033988;28;20466;-61
2021/05/12 03:28:28;;;;;;;26.73;20.87;;;;;;;;;;5034407;28;20480;-61
2021/05/12 03:30:55;;;;;;;26.00;19.80;;;;;;;;;;5034161;28;20450;-61
2021/05/12 03:33:21;;;;;;;25.40;20.37;;;;;;;;;;5034073;28;20445;-61
2021/05/12 03:35:48;;;;;;;29.23;23.03;;;;;;;;;;5033611;28;20465;-61
2021/05/12 03:38:16;;;;;;;28.23;24.07;;;;;;;;;;5034045;28;20495;-61
2021/05/12 03:40:43;;;;;;;26.93;23.40;;;;;;;;;;5033913;28;20450;-61
2021/05/12 03:43:10;;;;;;;24.00;20.90;;;;;;;;;;5033525;28;20458;-61
2021/05/12 03:45:37;;;;;;;24.47;21.20;;;;;;;;;;5034668;28;20493;-61
2021/05/12 03:48:05;;;;;;;26.20;22.87;;;;;;;;;;5033416;28;20444;-61
2021/05/12 03:50:32;;;;;;;27.03;22.00;;;;;;;;;;5033617;28;20834;-61
2021/05/12 03:52:59;;;;;;;26.70;22.13;;;;;;;;;;5033481;28;20459;-60
2021/05/12 03:55:27;;;;;;;27.80;21.80;;;;;;;;;;5033312;28;20837;-61
2021/05/12 03:57:54;;;;;;;31.07;23.27;;;;;;;;;;5032983;28;20446;-61
2021/05/12 04:00:21;;;;;;;28.20;23.00;;;;;;;;;;5033342;28;20445;-61
2021/05/12 04:02:48;;;;;;;27.80;22.60;;;;;;;;;;5033445;28;20453;-61
2021/05/12 04:08:04;;;;;;;31.10;23.60;;;;;;;;;;5126532;27;866063;-61
2021/05/12 04:10:31;;;;;;;28.17;22.50;;;;;;;;;;5132168;28;20542;-60
2021/05/12 04:12:57;;;;;;;27.30;23.70;;;;;;;;;;5131765;28;20478;-61
2021/05/12 04:15:24;;;;;;;31.90;25.30;;;;;;;;;;5131425;28;20453;-61
2021/05/12 04:17:51;;;;;;;31.53;23.67;;;;;;;;;;5131407;28;20433;-59
2021/05/12 04:20:19;;;;;;;35.67;25.23;;;;;;;;;;5131604;28;20441;-60
2021/05/12 04:22:46;;;;;;;35.17;24.17;;;;;;;;;;5131933;28;20446;-61
2021/05/12 04:25:14;;;;;;;32.27;22.60;;;;;;;;;;5131697;28;20862;-62
2021/05/12 04:27:41;;;;;;;29.90;23.87;;;;;;;;;;5132538;28;20478;-61
2021/05/12 04:30:11;;;;;;;35.00;24.60;;;;;;;;;;5133255;28;20445;-61
2021/05/12 04:32:38;;;;;;;36.13;24.87;;;;;;;;;;5132218;28;20449;-60
2021/05/12 04:35:06;;;;;;;31.20;22.97;;;;;;;;;;5131280;28;20507;-61
2021/05/12 04:37:32;;;;;;;36.80;26.37;;;;;;;;;;5131400;28;20464;-60
2021/05/12 04:39:59;;;;;;;37.23;25.87;;;;;;;;;;5131088;28;20443;-60
2021/05/12 04:42:27;;;;;;;38.57;26.40;;;;;;;;;;5131085;28;20438;-61
2021/05/12 04:44:53;;;;;;;38.53;26.20;;;;;;;;;;5131476;28;20465;-61
2021/05/12 04:47:20;;;;;;;37.47;27.57;;;;;;;;;;5131136;28;20473;-60
2021/05/12 04:49:47;;;;;;;36.20;25.37;;;;;;;;;;5131229;28;20510;-62
2021/05/12 04:52:14;;;;;;;39.20;25.43;;;;;;;;;;5131780;28;20441;-61
2021/05/12 04:54:41;;;;;;;38.33;25.30;;;;;;;;;;5130954;28;20458;-61
2021/05/12 04:57:08;;;;;;;38.17;26.07;;;;;;;;;;5130854;28;20444;-61
2021/05/12 04:59:36;;;;;;;38.20;24.07;;;;;;;;;;5130567;28;20449;-60
2021/05/12 05:02:04;;;;;;;42.30;28.10;;;;;;;;;;5130788;28;20567;-61
2021/05/12 05:04:31;;;;;;;32.70;23.87;;;;;;;;;;5130890;28;20466;-61
2021/05/12 05:06:58;;;;;;;33.17;23.40;;;;;;;;;;5130735;28;20486;-61
2021/05/12 05:09:24;;;;;;;37.67;24.90;;;;;;;;;;5130307;28;20499;-61
2021/05/12 05:11:51;;;;;;;34.40;24.00;;;;;;;;;;5130389;28;20442;-60
2021/05/12 05:14:18;;;;;;;31.23;23.60;;;;;;;;;;5130734;28;20461;-62
2021/05/12 05:16:47;;;;;;;29.27;21.63;;;;;;;;;;5131165;28;20473;-62
2021/05/12 05:19:13;;;;;;;29.90;22.67;;;;;;;;;;5118035;28;20443;-60
2021/05/12 05:21:41;;;;;;;35.37;25.50;;;;;;;;;;5116456;28;20472;-61
2021/05/12 05:24:09;;;;;;;33.97;24.53;;;;;;;;;;5116609;28;20502;-60
2021/05/12 05:26:36;;;;;;;34.30;23.20;;;;;;;;;;5116434;28;20479;-60
2021/05/12 05:29:03;;;;;;;33.90;24.40;;;;;;;;;;5116685;28;20444;-60
2021/05/12 05:31:29;;;;;;;36.97;25.53;;;;;;;;;;5116720;28;20464;-62
2021/05/12 05:33:57;;;;;;;31.20;22.40;;;;;;;;;;5116626;28;20443;-62
2021/05/12 05:36:24;;;;;;;33.20;25.30;;;;;;;;;;5116650;28;20436;-61
2021/05/12 05:38:51;;;;;;;34.07;26.03;;;;;;;;;;5116932;28;20452;-61
2021/05/12 05:41:18;;;;;;;34.60;24.90;;;;;;;;;;5116633;28;20939;-63
2021/05/12 05:43:44;;;;;;;30.13;25.07;;;;;;;;;;5116619;28;20495;-62
2021/05/12 05:46:11;;;;;;;33.20;24.30;;;;;;;;;;5116447;28;21009;-63
2021/05/12 05:48:38;;;;;;;32.40;23.63;;;;;;;;;;5116976;28;20463;-63
2021/05/12 05:51:06;;;;;;;30.43;23.10;;;;;;;;;;5117626;28;20444;-64
2021/05/12 05:53:32;;;;;;;29.70;22.50;;;;;;;;;;5118469;28;20436;-62
2021/05/12 05:55:59;;;;;;;31.67;22.00;;;;;;;;;;5119246;28;20475;-63
2021/05/12 05:58:26;;;;;;;26.30;20.67;;;;;;;;;;5123223;28;20456;-62
2021/05/12 06:00:53;;;;;;;26.90;20.40;;;;;;;;;;5124245;28;20440;-62
2021/05/12 06:03:19;;;;;;;32.60;20.20;;;;;;;;;;5123203;28;20451;-63
2021/05/12 06:05:47;;;;;;;26.93;21.00;;;;;;;;;;5125663;28;20463;-62
2021/05/12 06:08:15;;;;;;;27.30;20.43;;;;;;;;;;5127968;28;20453;-63
2021/05/12 06:10:42;;;;;;;26.80;22.10;;;;;;;;;;5126328;28;20452;-61
2021/05/12 06:13:09;;;;;;;27.87;21.47;;;;;;;;;;5125619;28;20462;-63
2021/05/12 06:15:37;;;;;;;26.93;19.77;;;;;;;;;;5124808;28;20461;-61
2021/05/12 06:18:04;;;;;;;29.03;22.53;;;;;;;;;;5118672;28;20467;-62
2021/05/12 06:20:30;;;;;;;26.73;20.57;;;;;;;;;;5116955;28;20946;-62
2021/05/12 06:23:01;;;;;;;28.03;20.40;;;;;;;;;;5115822;28;20969;-62
2021/05/12 06:25:28;;;;;;;27.57;21.63;;;;;;;;;;5116860;28;20503;-64
2021/05/12 06:27:55;;;;;;;24.33;19.87;;;;;;;;;;5116876;28;20471;-63
2021/05/12 06:30:22;;;;;;;24.20;20.03;;;;;;;;;;5115351;28;20443;-62
2021/05/12 06:32:51;;;;;;;27.20;21.20;;;;;;;;;;5116491;28;20455;-62
2021/05/12 06:35:18;;;;;;;28.33;21.33;;;;;;;;;;5116115;28;20516;-62
2021/05/12 06:37:46;;;;;;;28.63;20.23;;;;;;;;;;5115773;28;20458;-64
2021/05/12 06:40:13;;;;;;;24.67;19.73;;;;;;;;;;5115490;28;20529;-63
2021/05/12 06:42:40;;;;;;;22.87;17.97;;;;;;;;;;5115339;28;20435;-63
2021/05/12 06:45:08;;;;;;;22.73;16.87;;;;;;;;;;5114866;28;20467;-64
2021/05/12 06:47:34;;;;;;;21.60;16.93;;;;;;;;;;5115051;28;20525;-63
2021/05/12 06:50:01;;;;;;;20.50;17.77;;;;;;;;;;5114661;28;20443;-62
2021/05/12 06:52:28;;;;;;;19.60;16.17;;;;;;;;;;5115013;28;20794;-61
2021/05/12 06:54:55;;;;;;;19.73;15.57;;;;;;;;;;5115007;28;20571;-59
2021/05/12 06:57:22;;;;;;;16.50;14.70;;;;;;;;;;5114740;28;20443;-61
2021/05/12 06:59:49;;;;;;;18.00;13.57;;;;;;;;;;5115087;28;20846;-61
2021/05/12 07:02:16;;;;;;;17.30;14.60;;;;;;;;;;5115167;28;20447;-62
2021/05/12 07:04:43;;;;;;;15.20;13.60;;;;;;;;;;5114796;28;20479;-61
2021/05/12 07:07:10;;;;;;;18.80;14.03;;;;;;;;;;5116485;28;20516;-61
2021/05/12 07:09:36;;;;;;;19.57;15.50;;;;;;;;;;5122404;28;20443;-62
2021/05/12 07:12:03;;;;;;;17.77;14.60;;;;;;;;;;5127187;28;20444;-61
2021/05/12 07:14:30;;;;;;;19.60;12.20;;;;;;;;;;5127895;28;20468;-61
2021/05/12 07:16:58;;;;;;;16.60;13.93;;;;;;;;;;5127412;28;20455;-61
2021/05/12 07:19:24;;;;;;;16.60;13.37;;;;;;;;;;5126456;28;20444;-60
2021/05/12 07:21:51;;;;;;;19.63;14.07;;;;;;;;;;5128279;28;20507;-61
2021/05/12 07:24:18;;;;;;;16.03;13.50;;;;;;;;;;5125787;28;20482;-61
2021/05/12 07:26:46;;;;;;;15.93;14.13;;;;;;;;;;5127952;28;20481;-60
2021/05/12 07:29:13;;;;;;;16.50;13.10;;;;;;;;;;5129868;28;20445;-61
2021/05/12 07:31:40;;;;;;;16.10;14.30;;;;;;;;;;5128473;28;20499;-61
2021/05/12 07:34:10;;;;;;;14.53;12.87;;;;;;;;;;5125484;28;20529;-61
2021/05/12 07:36:37;;;;;;;17.70;15.13;;;;;;;;;;5124081;28;20881;-62
2021/05/12 07:39:05;;;;;;;16.70;14.80;;;;;;;;;;5124382;28;20427;-62
2021/05/12 07:41:32;;;;;;;17.10;15.30;;;;;;;;;;5126325;28;20792;-61
2021/05/12 07:43:58;;;;;;;17.07;14.67;;;;;;;;;;5122453;28;20477;-61
2021/05/12 07:46:25;;;;;;;16.27;12.83;;;;;;;;;;5119163;28;20481;-61
2021/05/12 07:48:52;;;;;;;19.20;15.77;;;;;;;;;;5118148;28;20526;-61
2021/05/12 07:51:20;;;;;;;15.63;14.03;;;;;;;;;;5118844;28;20440;-62
2021/05/12 07:53:47;;;;;;;19.10;15.53;;;;;;;;;;5119726;28;20445;-62
2021/05/12 07:56:13;;;;;;;19.53;16.27;;;;;;;;;;5120566;28;20477;-62
2021/05/12 07:58:40;;;;;;;15.70;13.00;;;;;;;;;;5119230;28;20440;-62
2021/05/12 08:01:17;;;;;;;16.90;13.73;;;;;;;;;;5117381;28;20469;-61
2021/05/12 08:03:44;;;;;;;17.97;15.43;;;;;;;;;;5117276;28;20424;-63
2021/05/12 08:06:10;;;;;;;17.87;15.97;;;;;;;;;;5118606;28;20456;-60
2021/05/12 08:08:38;;;;;;;18.37;14.17;;;;;;;;;;5117680;28;20903;-62
2021/05/12 08:11:05;;;;;;;17.97;14.77;;;;;;;;;;5118946;28;20447;-63
2021/05/12 08:13:32;;;;;;;17.70;15.80;;;;;;;;;;5116291;28;20448;-62
2021/05/12 08:15:59;;;;;;;22.23;16.13;;;;;;;;;;5116308;28;20477;-61
2021/05/12 08:18:26;;;;;;;18.47;16.00;;;;;;;;;;5115688;28;20967;-63
2021/05/12 08:20:55;;;;;;;18.37;16.20;;;;;;;;;;5114307;28;20445;-62
2021/05/12 08:23:22;;;;;;;19.30;15.20;;;;;;;;;;5113746;28;20521;-62
2021/05/12 08:25:49;;;;;;;16.30;13.13;;;;;;;;;;5113292;28;20993;-61
2021/05/12 08:28:17;;;;;;;15.87;14.20;;;;;;;;;;5113625;28;20473;-62
2021/05/12 08:30:46;;;;;;;16.60;14.85;;;;;;;;;;5112470;28;20411;-63
2021/05/12 08:33:13;;;;;;;19.13;14.40;;;;;;;;;;5114623;28;20200;-65
2021/05/12 08:35:41;;;;;;;14.13;12.63;;;;;;;;;;5114665;28;20487;-63
2021/05/12 08:38:09;;;;;;;13.27;11.90;;;;;;;;;;5115067;28;20476;-64
2021/05/12 08:40:35;;;;;;;16.20;13.43;;;;;;;;;;5113729;28;20932;-60
2021/05/12 08:43:04;;;;;;;15.07;11.87;;;;;;;;;;5114446;28;20455;-61
2021/05/12 08:45:31;;;;;;;14.40;12.90;;;;;;;;;;5114117;28;20460;-62
2021/05/12 08:47:58;;;;;;;14.97;12.57;;;;;;;;;;5114259;28;20473;-63
2021/05/12 08:50:25;;;;;;;13.40;12.00;;;;;;;;;;5115183;28;20431;-63
2021/05/12 08:52:53;;;;;;;15.83;12.50;;;;;;;;;;5116446;28;20663;-61
2021/05/12 08:55:20;;;;;;;15.00;13.10;;;;;;;;;;5119769;28;20475;-61
2021/05/12 08:57:47;;;;;;;12.40;11.10;;;;;;;;;;5118231;28;20485;-63
2021/05/12 09:00:15;;;;;;;14.43;12.27;;;;;;;;;;5117445;28;20444;-61
2021/05/12 09:02:42;;;;;;;13.70;12.10;;;;;;;;;;5117760;28;20441;-61
2021/05/12 09:05:09;;;;;;;13.10;11.50;;;;;;;;;;5116880;28;20472;-61
2021/05/12 09:07:36;;;;;;;12.37;10.93;;;;;;;;;;5116991;28;20481;-63
2021/05/12 09:10:04;;;;;;;12.30;11.10;;;;;;;;;;5117310;28;20452;-63
2021/05/12 09:12:42;;;;;;;10.37;9.37;;;;;;;;;;5116930;28;20551;-62
2021/05/12 09:15:09;;;;;;;11.60;9.07;;;;;;;;;;5116963;28;20483;-63
2021/05/12 09:17:40;;;;;;;10.90;9.80;;;;;;;;;;5116746;28;20478;-62
2021/05/12 09:20:22;;;;;;;11.93;9.40;;;;;;;;;;5117169;28;20490;-64
2021/05/12 09:22:50;;;;;;;9.50;8.60;;;;;;;;;;5118367;28;20999;-62
2021/05/12 09:25:17;;;;;;;10.03;8.50;;;;;;;;;;5119535;28;20980;-62
2021/05/12 09:27:47;;;;;;;9.33;8.43;;;;;;;;;;5118489;28;20477;-63
2021/05/12 09:30:20;;;;;;;11.50;8.73;;;;;;;;;;5118089;28;20456;-63
2021/05/12 09:32:48;;;;;;;10.10;8.43;;;;;;;;;;5117798;28;20426;-64
2021/05/12 09:35:15;;;;;;;8.97;7.73;;;;;;;;;;5116842;28;20461;-63
2021/05/12 09:37:42;;;;;;;9.67;8.60;;;;;;;;;;5116219;28;20442;-63
2021/05/12 09:40:10;;;;;;;10.90;7.60;;;;;;;;;;5115940;28;20441;-64
2021/05/12 09:42:38;;;;;;;8.10;7.27;;;;;;;;;;5116701;28;20901;-63
2021/05/12 09:45:12;;;;;;;8.40;7.50;;;;;;;;;;5116459;28;21018;-63
2021/05/12 09:47:39;;;;;;;9.50;7.40;;;;;;;;;;5116037;28;21008;-63
2021/05/12 09:50:11;;;;;;;9.20;8.30;;;;;;;;;;5116943;28;20472;-64
2021/05/12 09:52:38;;;;;;;10.50;8.47;;;;;;;;;;5116403;28;20831;-63
2021/05/12 09:55:07;;;;;;;8.73;7.87;;;;;;;;;;5116195;28;20479;-64
2021/05/12 09:57:34;;;;;;;9.57;8.60;;;;;;;;;;5116657;28;20442;-63
2021/05/12 10:00:01;;;;;;;9.23;8.30;;;;;;;;;;5116411;28;20437;-63
2021/05/12 10:02:27;;;;;;;8.03;7.33;;;;;;;;;;5116335;28;20442;-63
2021/05/12 10:05:00;;;;;;;10.67;8.20;;;;;;;;;;5115986;28;20525;-63
2021/05/12 10:07:28;;;;;;;7.30;6.60;;;;;;;;;;5115799;28;20487;-63
2021/05/12 10:09:55;;;;;;;7.77;6.93;;;;;;;;;;5115619;28;20511;-61
2021/05/12 10:12:23;;;;;;;9.93;8.00;;;;;;;;;;5115416;28;20470;-61
2021/05/12 10:14:50;;;;;;;8.40;7.50;;;;;;;;;;5115262;28;20466;-62
2021/05/12 10:17:18;;;;;;;7.97;7.17;;;;;;;;;;5115891;28;20467;-62
2021/05/12 10:19:45;;;;;;;7.70;6.77;;;;;;;;;;5115030;28;21029;-62
2021/05/12 10:22:12;;;;;;;8.60;7.03;;;;;;;;;;5115488;28;20799;-63
2021/05/12 10:24:41;;;;;;;7.87;6.83;;;;;;;;;;5116043;28;20474;-63
2021/05/12 10:27:09;;;;;;;6.93;6.20;;;;;;;;;;5115601;28;20489;-63
2021/05/12 10:29:37;;;;;;;7.53;6.83;;;;;;;;;;5115405;28;20447;-63
2021/05/12 10:32:32;;;;;;;10.80;6.90;;;;;;;;;;5115588;28;20447;-63
2021/05/12 10:35:05;;;;;;;8.80;7.90;;;;;;;;;;5068127;28;20507;-62
2021/05/12 10:37:32;;;;;;;8.40;6.80;;;;;;;;;;5114668;28;20438;-62
2021/05/12 10:40:02;;;;;;;8.40;7.60;;;;;;;;;;5115701;28;20470;-61
2021/05/12 10:42:45;;;;;;;9.30;8.50;;;;;;;;;;5115337;28;20486;-63
2021/05/12 10:45:14;;;;;;;11.10;9.37;;;;;;;;;;5114771;28;20458;-63
2021/05/12 10:47:41;;;;;;;10.20;9.13;;;;;;;;;;5114269;28;20614;-63
2021/05/12 10:50:08;;;;;;;13.10;10.40;;;;;;;;;;5114957;28;20442;-62
2021/05/12 10:52:35;;;;;;;10.60;9.50;;;;;;;;;;5115096;28;20473;-63
2021/05/12 10:55:02;;;;;;;12.13;9.50;;;;;;;;;;5115213;28;20468;-61
2021/05/12 10:57:45;;;;;;;12.27;9.30;;;;;;;;;;5119606;28;20449;-63
2021/05/12 11:00:12;;;;;;;10.63;9.63;;;;;;;;;;5116166;28;20523;-61
2021/05/12 11:03:03;;;;;;;11.43;9.43;;;;;;;;;;5115847;28;20448;-62
2021/05/12 11:05:43;;;;;;;10.40;9.27;;;;;;;;;;5095389;28;20506;-62
2021/05/12 11:08:16;;;;;;;9.53;8.60;;;;;;;;;;5114894;28;20487;-63
2021/05/12 11:10:50;;;;;;;8.17;7.40;;;;;;;;;;5114971;28;20445;-63
2021/05/12 11:13:21;;;;;;;11.00;8.70;;;;;;;;;;5114169;28;20765;-62
2021/05/12 11:15:51;;;;;;;9.83;8.93;;;;;;;;;;5114007;28;20457;-62
2021/05/12 11:18:37;;;;;;;10.27;9.40;;;;;;;;;;5114193;28;20444;-64
2021/05/12 11:21:24;;;;;;;10.40;9.30;;;;;;;;;;5114058;28;20514;-62
2021/05/12 11:24:06;;;;;;;9.40;8.50;;;;;;;;;;5114032;28;20450;-62
2021/05/12 11:26:46;;;;;;;10.10;9.17;;;;;;;;;;5114059;28;20494;-63
2021/05/12 11:32:02;;;;;;;10.13;9.23;;;;;;;;;;5112912;28;20426;-60
2021/05/12 11:34:29;;;;;;;8.83;8.03;;;;;;;;;;5113457;28;20465;-63
2021/05/12 11:37:04;;;;;;;10.10;8.60;;;;;;;;;;5113674;28;20449;-62
2021/05/12 11:39:31;;;;;;;9.93;9.00;;;;;;;;;;5114072;28;20421;-62
2021/05/12 11:41:59;;;;;;;8.23;7.53;;;;;;;;;;5114098;28;20437;-64
2021/05/12 11:44:25;;;;;;;8.03;7.23;;;;;;;;;;5113583;28;20473;-61
2021/05/12 11:46:52;;;;;;;7.30;6.60;;;;;;;;;;5113388;28;20485;-61
2021/05/12 11:49:20;;;;;;;9.03;7.03;;;;;;;;;;5113674;28;20441;-63
2021/05/12 11:51:47;;;;;;;7.80;6.97;;;;;;;;;;5114511;28;20449;-61
2021/05/12 11:54:15;;;;;;;8.17;7.47;;;;;;;;;;5113385;28;20514;-63
2021/05/12 11:56:43;;;;;;;8.97;8.17;;;;;;;;;;5114157;28;20437;-61
2021/05/12 11:59:13;;;;;;;7.33;6.60;;;;;;;;;;5113405;28;20905;-62
2021/05/12 12:01:43;;;;;;;8.17;7.37;;;;;;;;;;5115020;28;20856;-62
2021/05/12 12:04:19;;;;;;;8.73;7.93;;;;;;;;;;5115848;28;20469;-62
2021/05/12 12:06:47;;;;;;;8.17;7.47;;;;;;;;;;5116179;28;20485;-63
2021/05/12 12:09:14;;;;;;;10.00;8.10;;;;;;;;;;5114676;28;20447;-64
2021/05/12 12:11:41;;;;;;;7.93;7.23;;;;;;;;;;5114243;28;20853;-64
2021/05/12 12:14:09;;;;;;;7.57;6.87;;;;;;;;;;5113124;28;20462;-62
2021/05/12 12:16:37;;;;;;;9.03;8.10;;;;;;;;;;5113695;28;20445;-62
2021/05/12 12:19:10;;;;;;;8.00;7.03;;;;;;;;;;5113442;28;20449;-63
2021/05/12 12:21:37;;;;;;;7.50;6.80;;;;;;;;;;5113951;28;20445;-63
2021/05/12 12:24:07;;;;;;;7.27;6.57;;;;;;;;;;5113349;28;20828;-63
2021/05/12 12:26:35;;;;;;;7.13;6.53;;;;;;;;;;5113363;28;20441;-64
2021/05/12 12:29:03;;;;;;;7.73;7.03;;;;;;;;;;5116069;28;20524;-61
2021/05/12 12:31:32;;;;;;;8.13;7.13;;;;;;;;;;5117315;28;20486;-64
2021/05/12 12:34:20;;;;;;;7.57;6.63;;;;;;;;;;5117298;28;20451;-62
2021/05/12 12:36:47;;;;;;;8.23;6.40;;;;;;;;;;5118081;28;20565;-62
2021/05/12 12:39:14;;;;;;;7.17;6.57;;;;;;;;;;5117817;28;20953;-62
2021/05/12 12:41:41;;;;;;;7.43;6.23;;;;;;;;;;5117683;28;20514;-62
2021/05/12 12:44:08;;;;;;;11.20;6.27;;;;;;;;;;5117051;28;20457;-63
2021/05/12 12:46:35;;;;;;;6.80;6.10;;;;;;;;;;5117073;28;20454;-63
2021/05/12 12:49:02;;;;;;;6.20;5.60;;;;;;;;;;5118894;28;20447;-60
2021/05/12 12:51:37;;;;;;;7.23;6.30;;;;;;;;;;5119125;28;20955;-60
2021/05/12 12:54:04;;;;;;;6.90;5.83;;;;;;;;;;5119665;28;20471;-62
2021/05/12 12:56:30;;;;;;;6.77;5.47;;;;;;;;;;5121791;28;20441;-64
2021/05/12 12:59:05;;;;;;;7.43;5.50;;;;;;;;;;5119607;28;20440;-62
2021/05/12 13:01:32;;;;;;;7.03;5.90;;;;;;;;;;5118177;28;20448;-62
2021/05/12 13:04:13;;;;;;;6.23;5.60;;;;;;;;;;5117569;28;20445;-61
2021/05/12 13:06:41;;;;;;;10.20;5.30;;;;;;;;;;5116963;28;20472;-63
2021/05/12 13:09:22;;;;;;;5.53;5.03;;;;;;;;;;5117062;28;20853;-62
2021/05/12 13:11:53;;;;;;;6.50;5.27;;;;;;;;;;5118590;28;20433;-61
2021/05/12 13:14:20;;;;;;;6.13;5.60;;;;;;;;;;5116959;28;20847;-62
2021/05/12 13:16:47;;;;;;;6.77;6.17;;;;;;;;;;5117725;28;20850;-61
2021/05/12 13:19:14;;;;;;;6.23;5.63;;;;;;;;;;5118277;28;20437;-61
2021/05/12 13:21:48;;;;;;;6.93;5.53;;;;;;;;;;5118180;28;20445;-64
2021/05/12 13:24:21;;;;;;;6.80;5.87;;;;;;;;;;5118202;28;20916;-62
2021/05/12 13:26:55;;;;;;;6.00;5.40;;;;;;;;;;5118282;28;20425;-61
2021/05/12 13:29:22;;;;;;;6.60;6.00;;;;;;;;;;5117980;28;20432;-61
2021/05/12 13:31:50;;;;;;;6.53;5.50;;;;;;;;;;5117270;28;20449;-62
2021/05/12 13:34:18;;;;;;;5.77;5.23;;;;;;;;;;5117621;28;20975;-64
2021/05/12 13:36:48;;;;;;;6.27;5.67;;;;;;;;;;5118985;28;20449;-63
2021/05/12 13:39:15;;;;;;;6.17;5.57;;;;;;;;;;5119698;28;20453;-63
2021/05/12 13:41:42;;;;;;;7.00;6.30;;;;;;;;;;5117597;28;20441;-63
2021/05/12 13:44:11;;;;;;;7.53;5.63;;;;;;;;;;5117101;28;20515;-63
2021/05/12 13:46:37;;;;;;;7.90;7.10;;;;;;;;;;5120095;28;20494;-62
2021/05/12 13:49:04;;;;;;;9.20;7.20;;;;;;;;;;5118743;28;20493;-61
2021/05/12 13:51:34;;;;;;;8.97;7.90;;;;;;;;;;5121523;28;20445;-62
2021/05/12 13:54:07;;;;;;;9.20;8.07;;;;;;;;;;5121675;28;20466;-61
2021/05/12 13:56:37;;;;;;;8.90;7.10;;;;;;;;;;5117926;28;20432;-62
2021/05/12 13:59:16;;;;;;;9.13;8.30;;;;;;;;;;5116343;28;20449;-60
2021/05/12 14:01:56;;;;;;;9.53;7.43;;;;;;;;;;5116063;28;20426;-61
2021/05/12 14:04:23;;;;;;;10.20;8.13;;;;;;;;;;5116100;28;20465;-62
2021/05/12 14:06:49;;;;;;;8.50;7.73;;;;;;;;;;5116126;28;20457;-61
2021/05/12 14:09:19;;;;;;;8.40;7.63;;;;;;;;;;5116151;28;20445;-63
2021/05/12 14:11:49;;;;;;;7.90;6.90;;;;;;;;;;5116536;28;20813;-62
2021/05/12 14:17:03;;;;;;;7.63;6.57;;;;;;;;;;5112218;28;20445;-62
2021/05/12 14:19:30;;;;;;;10.23;5.57;;;;;;;;;;5115829;28;20454;-61
2021/05/12 14:21:57;;;;;;;5.43;4.63;;;;;;;;;;5115516;28;20437;-63
2021/05/12 14:24:27;;;;;;;5.53;5.00;;;;;;;;;;5115790;28;20465;-61
2021/05/12 14:26:54;;;;;;;8.10;5.27;;;;;;;;;;5115975;28;20446;-62
2021/05/12 14:29:30;;;;;;;6.07;5.40;;;;;;;;;;5115755;28;20449;-62
2021/05/12 14:31:57;;;;;;;5.30;4.47;;;;;;;;;;5115727;28;20422;-63
2021/05/12 14:34:23;;;;;;;5.30;4.70;;;;;;;;;;5115619;28;20470;-62
2021/05/12 14:36:50;;;;;;;5.80;4.27;;;;;;;;;;5115294;28;20457;-63
2021/05/12 14:39:18;;;;;;;5.90;4.07;;;;;;;;;;5114739;28;20458;-60
2021/05/12 14:41:46;;;;;;;7.63;4.33;;;;;;;;;;5115925;28;20452;-63